createdAt,value
2022-09-20T00:01:34.136Z,2.60
2022-09-20T00:04:05.517Z,2.30
2022-09-20T00:06:35.181Z,2.70
2022-09-20T00:09:04.983Z,3.70
2022-09-20T00:11:34.888Z,2.90
2022-09-20T00:14:06.158Z,2.90
2022-09-20T00:16:39.110Z,3.40
2022-09-20T00:19:08.919Z,3.20
2022-09-20T00:21:38.006Z,3.50
2022-09-20T00:24:06.798Z,2.80
2022-09-20T00:26:34.569Z,3.00
2022-09-20T00:29:02.597Z,2.90
2022-09-20T00:31:30.477Z,3.50
2022-09-20T00:34:17.756Z,3.50
2022-09-20T00:36:45.791Z,2.60
2022-09-20T00:39:15.301Z,2.90
2022-09-20T00:41:44.105Z,2.60
2022-09-20T00:44:51.801Z,8.80
2022-09-20T00:47:44.856Z,8.30
2022-09-20T00:50:30.676Z,3.00
2022-09-20T00:55:29.507Z,3.00
2022-09-20T00:57:58.763Z,4.30
2022-09-20T01:00:27.970Z,5.20
2022-09-20T01:03:01.372Z,3.30
2022-09-20T01:05:29.734Z,3.40
2022-09-20T01:07:57.985Z,3.30
2022-09-20T01:10:25.839Z,3.20
2022-09-20T01:12:54.382Z,3.10
2022-09-20T01:15:27.950Z,2.90
2022-09-20T01:17:59.424Z,3.00
2022-09-20T01:20:40.784Z,2.50
2022-09-20T01:23:33.036Z,3.10
2022-09-20T01:26:09.939Z,3.40
2022-09-20T01:28:39.229Z,3.80
2022-09-20T01:31:15.167Z,3.90
2022-09-20T01:33:48.934Z,3.40
2022-09-20T01:36:25.041Z,3.50
2022-09-20T01:39:22.821Z,3.60
2022-09-20T01:41:57.593Z,3.10
2022-09-20T01:44:37.406Z,3.30
2022-09-20T01:47:43.292Z,3.20
2022-09-20T01:50:29.968Z,3.20
2022-09-20T01:53:19.189Z,2.80
2022-09-20T01:56:05.802Z,3.20
2022-09-20T01:58:39.648Z,3.10
2022-09-20T02:01:38.772Z,2.90
2022-09-20T02:04:44.522Z,2.90
2022-09-20T02:07:43.028Z,2.80
2022-09-20T02:10:58.777Z,2.60
2022-09-20T02:13:31.086Z,2.70
2022-09-20T02:16:34.938Z,2.50
2022-09-20T02:19:34.181Z,3.00
2022-09-20T02:22:47.147Z,2.60
2022-09-20T02:25:29.369Z,2.40
2022-09-20T02:28:23.454Z,2.40
2022-09-20T02:31:03.425Z,2.50
2022-09-20T02:34:02.502Z,2.20
2022-09-20T02:36:59.991Z,2.70
2022-09-20T02:39:44.713Z,2.60
2022-09-20T02:42:17.871Z,2.40
2022-09-20T02:44:46.084Z,2.30
2022-09-20T02:47:21.046Z,2.80
2022-09-20T02:50:07.657Z,2.70
2022-09-20T02:53:08.799Z,2.60
2022-09-20T02:55:48.005Z,2.50
2022-09-20T02:58:46.621Z,2.60
2022-09-20T03:01:51.808Z,2.50
2022-09-20T03:04:34.998Z,2.60
2022-09-20T03:07:30.853Z,2.70
2022-09-20T03:10:23.803Z,2.70
2022-09-20T03:13:07.815Z,2.70
2022-09-20T03:16:06.493Z,2.50
2022-09-20T03:18:49.190Z,2.40
2022-09-20T03:21:40.469Z,2.60
2022-09-20T03:24:20.494Z,2.50
2022-09-20T03:27:05.606Z,2.30
2022-09-20T03:29:36.347Z,2.90
2022-09-20T03:32:16.305Z,2.20
2022-09-20T03:34:56.208Z,2.20
2022-09-20T03:37:33.593Z,1.90
2022-09-20T03:40:23.580Z,2.10
2022-09-20T03:42:59.029Z,2.50
2022-09-20T03:45:48.753Z,2.10
2022-09-20T03:48:38.032Z,2.40
2022-09-20T03:51:24.344Z,2.80
2022-09-20T03:54:31.420Z,2.50
2022-09-20T03:57:11.474Z,2.60
2022-09-20T04:00:21.037Z,2.50
2022-09-20T04:03:14.170Z,2.50
2022-09-20T04:05:51.136Z,2.30
2022-09-20T04:08:55.987Z,1.70
2022-09-20T04:12:06.090Z,1.90
2022-09-20T04:15:08.233Z,2.20
2022-09-20T04:17:58.989Z,2.10
2022-09-20T04:21:00.790Z,2.60
2022-09-20T04:23:47.539Z,6.40
2022-09-20T04:26:26.463Z,9.00
2022-09-20T04:29:32.080Z,4.80
2022-09-20T04:32:14.009Z,3.10
2022-09-20T04:35:24.008Z,3.10
2022-09-20T04:37:53.632Z,3.40
2022-09-20T04:41:00.122Z,2.90
2022-09-20T04:43:53.820Z,3.90
2022-09-20T04:46:36.773Z,3.80
2022-09-20T04:49:25.888Z,4.10
2022-09-20T04:52:00.217Z,4.80
2022-09-20T04:54:41.565Z,4.90
2022-09-20T04:57:36.904Z,5.20
2022-09-20T05:00:12.956Z,5.60
2022-09-20T05:05:41.228Z,6.30
2022-09-20T05:08:35.514Z,7.00
2022-09-20T05:11:09.846Z,6.40
2022-09-20T05:13:59.150Z,7.30
2022-09-20T05:16:46.784Z,8.70
2022-09-20T05:19:23.475Z,8.90
2022-09-20T05:22:02.482Z,8.60
2022-09-20T05:24:35.225Z,9.30
2022-09-20T05:27:19.697Z,9.50
2022-09-20T05:29:55.568Z,9.40
2022-09-20T05:32:33.761Z,9.80
2022-09-20T05:35:26.943Z,9.30
2022-09-20T05:38:13.660Z,9.40
2022-09-20T05:41:07.312Z,10.50
2022-09-20T05:44:20.190Z,10.90
2022-09-20T05:47:16.175Z,10.90
2022-09-20T05:50:12.583Z,9.80
2022-09-20T05:52:59.496Z,10.80
2022-09-20T05:56:01.620Z,10.50
2022-09-20T05:58:48.396Z,11.00
2022-09-20T06:01:20.070Z,10.50
2022-09-20T06:04:13.515Z,10.70
2022-09-20T06:07:10.521Z,10.10
2022-09-20T06:09:47.297Z,10.30
2022-09-20T06:12:37.313Z,13.10
2022-09-20T06:15:15.343Z,9.60
2022-09-20T06:18:20.797Z,8.90
2022-09-20T06:21:16.543Z,10.00
2022-09-20T06:23:44.953Z,8.40
2022-09-20T06:26:26.654Z,8.30
2022-09-20T06:29:00.671Z,9.10
2022-09-20T06:31:28.770Z,8.70
2022-09-20T06:34:02.346Z,8.10
2022-09-20T06:36:51.236Z,8.00
2022-09-20T06:40:07.278Z,7.50
2022-09-20T06:42:36.309Z,7.70
2022-09-20T06:45:05.009Z,7.20
2022-09-20T06:47:35.715Z,7.70
2022-09-20T06:50:07.441Z,8.00
2022-09-20T06:52:35.859Z,7.90
2022-09-20T06:55:07.511Z,7.70
2022-09-20T06:57:39.069Z,7.20
2022-09-20T07:00:10.525Z,12.40
2022-09-20T07:02:38.642Z,10.60
2022-09-20T07:05:07.676Z,10.70
2022-09-20T07:07:35.454Z,10.60
2022-09-20T07:10:03.401Z,11.10
2022-09-20T07:12:34.173Z,9.80
2022-09-20T07:15:02.186Z,10.90
2022-09-20T07:17:30.044Z,10.90
2022-09-20T07:19:57.843Z,11.10
2022-09-20T07:22:27.109Z,9.80
2022-09-20T07:24:55.460Z,11.00
2022-09-20T07:27:26.369Z,11.70
2022-09-20T07:29:56.893Z,10.60
2022-09-20T07:32:25.031Z,10.30
2022-09-20T07:34:52.879Z,10.70
2022-09-20T07:37:20.667Z,10.20
2022-09-20T07:39:48.473Z,10.00
2022-09-20T07:42:16.342Z,10.00
2022-09-20T07:44:44.118Z,10.50
2022-09-20T07:47:14.139Z,9.50
2022-09-20T07:49:42.039Z,9.10
2022-09-20T07:52:11.394Z,9.00
2022-09-20T07:54:40.080Z,9.00
2022-09-20T07:57:08.433Z,7.40
2022-09-20T07:59:36.241Z,6.20
2022-09-20T08:02:04.279Z,5.90
2022-09-20T08:04:32.368Z,6.20
2022-09-20T08:07:01.665Z,5.70
2022-09-20T08:09:29.676Z,5.90
2022-09-20T08:11:58.377Z,5.40
2022-09-20T08:14:26.322Z,6.60
2022-09-20T08:16:56.449Z,5.40
2022-09-20T08:19:24.388Z,4.40
2022-09-20T08:21:54.102Z,4.50
2022-09-20T08:24:22.148Z,4.10
2022-09-20T08:26:50.045Z,3.90
2022-09-20T08:29:18.252Z,3.80
2022-09-20T08:31:47.337Z,4.10
2022-09-20T08:34:17.848Z,3.60
2022-09-20T08:36:47.218Z,3.90
2022-09-20T08:42:28.002Z,3.30
2022-09-20T08:45:01.467Z,3.70
2022-09-20T08:47:33.303Z,3.70
2022-09-20T08:50:17.589Z,4.10
2022-09-20T08:52:49.412Z,3.50
2022-09-20T08:55:24.161Z,3.40
2022-09-20T08:57:55.345Z,3.20
2022-09-20T09:00:34.081Z,3.40
2022-09-20T09:03:07.019Z,2.80
2022-09-20T09:05:46.554Z,2.70
2022-09-20T09:08:18.406Z,2.70
2022-09-20T09:10:54.313Z,2.60
2022-09-20T09:13:25.533Z,2.90
2022-09-20T09:15:57.654Z,2.60
2022-09-20T09:18:32.278Z,2.80
2022-09-20T09:21:04.307Z,2.90
2022-09-20T09:23:42.581Z,2.60
2022-09-20T09:26:23.067Z,2.70
2022-09-20T09:29:32.934Z,2.20
2022-09-20T09:32:21.712Z,2.30
2022-09-20T09:34:50.249Z,2.20
2022-09-20T09:37:31.177Z,2.30
2022-09-20T09:40:12.616Z,2.40
2022-09-20T09:42:50.250Z,2.30
2022-09-20T09:45:38.843Z,1.90
2022-09-20T09:48:25.134Z,1.80
2022-09-20T09:51:12.760Z,2.20
2022-09-20T09:53:41.747Z,2.20
2022-09-20T09:56:18.211Z,2.20
2022-09-20T09:59:10.746Z,2.30
2022-09-20T10:01:55.896Z,2.30
2022-09-20T10:04:48.231Z,2.20
2022-09-20T10:07:54.460Z,2.70
2022-09-20T10:10:43.598Z,2.20
2022-09-20T10:13:50.997Z,2.20
2022-09-20T10:16:47.970Z,1.90
2022-09-20T10:19:47.030Z,1.80
2022-09-20T10:22:24.532Z,3.00
2022-09-20T10:24:59.660Z,1.50
2022-09-20T10:27:33.178Z,1.30
2022-09-20T10:30:12.441Z,1.60
2022-09-20T10:32:40.308Z,1.40
2022-09-20T10:35:29.963Z,1.70
2022-09-20T10:38:22.390Z,1.40
2022-09-20T10:41:30.580Z,1.30
2022-09-20T10:44:07.609Z,1.70
2022-09-20T10:46:51.736Z,1.80
2022-09-20T10:49:34.909Z,1.40
2022-09-20T10:52:22.933Z,1.20
2022-09-20T10:55:21.482Z,1.20
2022-09-20T10:58:01.581Z,1.50
2022-09-20T11:00:32.534Z,1.70
2022-09-20T11:03:38.116Z,1.60
2022-09-20T11:06:38.636Z,1.50
2022-09-20T11:09:13.992Z,1.80
2022-09-20T11:11:48.016Z,1.20
2022-09-20T11:14:23.387Z,1.40
2022-09-20T11:16:57.234Z,1.40
2022-09-20T11:19:50.747Z,1.70
2022-09-20T11:22:21.746Z,3.10
2022-09-20T11:25:29.267Z,2.00
2022-09-20T11:28:05.574Z,1.30
2022-09-20T11:30:36.593Z,1.30
2022-09-20T11:33:29.753Z,1.20
2022-09-20T11:36:04.300Z,1.30
2022-09-20T11:38:57.622Z,2.50
2022-09-20T11:41:32.563Z,1.20
2022-09-20T11:44:11.972Z,1.10
2022-09-20T11:46:49.280Z,1.10
2022-09-20T11:49:23.918Z,1.40
2022-09-20T11:52:17.578Z,0.90
2022-09-20T11:55:03.549Z,1.10
2022-09-20T11:57:32.191Z,1.20
2022-09-20T12:00:04.305Z,1.00
2022-09-20T12:02:53.177Z,1.10
2022-09-20T12:05:32.325Z,1.10
2022-09-20T12:08:18.555Z,1.20
2022-09-20T12:10:57.961Z,0.90
2022-09-20T12:13:28.126Z,0.90
2022-09-20T12:16:06.445Z,0.80
2022-09-20T12:18:34.248Z,0.70
2022-09-20T12:21:09.103Z,0.70
2022-09-20T12:23:39.733Z,0.70
2022-09-20T12:26:22.926Z,1.30
2022-09-20T12:28:56.982Z,1.00
2022-09-20T12:31:34.329Z,3.80
2022-09-20T12:34:11.898Z,0.80
2022-09-20T12:36:44.282Z,0.60
2022-09-20T12:39:12.662Z,0.60
2022-09-20T12:41:57.744Z,0.60
2022-09-20T12:44:31.262Z,0.60
2022-09-20T12:47:10.993Z,0.50
2022-09-20T12:50:06.991Z,0.80
2022-09-20T12:52:53.576Z,0.70
2022-09-20T12:55:27.709Z,0.80
2022-09-20T12:58:20.101Z,0.60
2022-09-20T13:01:14.404Z,0.60
2022-09-20T13:03:48.522Z,0.90
2022-09-20T13:06:17.908Z,5.40
2022-09-20T13:09:07.496Z,1.70
2022-09-20T13:12:01.360Z,1.40
2022-09-20T13:14:31.761Z,1.80
2022-09-20T13:17:07.296Z,0.80
2022-09-20T13:19:54.922Z,0.70
2022-09-20T13:22:30.420Z,0.80
2022-09-20T13:25:02.998Z,0.60
2022-09-20T13:27:36.495Z,0.70
2022-09-20T13:30:24.522Z,0.90
2022-09-20T13:32:53.420Z,0.70
2022-09-20T13:35:29.581Z,1.00
2022-09-20T13:38:05.137Z,0.70
2022-09-20T13:40:36.047Z,0.90
2022-09-20T13:43:23.077Z,0.80
2022-09-20T13:45:57.978Z,0.60
2022-09-20T13:48:30.424Z,0.70
2022-09-20T13:50:58.884Z,0.70
2022-09-20T13:53:41.447Z,0.80
2022-09-20T13:56:30.114Z,1.00
2022-09-20T13:59:05.281Z,1.10
2022-09-20T14:01:35.736Z,1.40
2022-09-20T14:04:08.269Z,1.20
2022-09-20T14:06:36.578Z,1.10
2022-09-20T14:09:11.002Z,1.20
2022-09-20T14:11:40.262Z,1.10
2022-09-20T14:14:12.484Z,1.10
2022-09-20T14:16:49.133Z,3.10
2022-09-20T14:19:20.505Z,1.70
2022-09-20T14:21:50.180Z,1.20
2022-09-20T14:24:17.876Z,1.90
2022-09-20T14:27:22.698Z,1.20
2022-09-20T14:29:52.649Z,1.20
2022-09-20T14:32:28.849Z,1.20
2022-09-20T14:35:19.183Z,1.90
2022-09-20T14:37:51.121Z,1.20
2022-09-20T14:40:33.405Z,1.20
2022-09-20T14:43:03.769Z,1.30
2022-09-20T14:45:34.666Z,0.90
2022-09-20T14:48:11.647Z,1.00
2022-09-20T14:51:06.654Z,0.90
2022-09-20T14:53:37.318Z,0.90
2022-09-20T14:56:05.403Z,1.00
2022-09-20T14:58:55.167Z,1.20
2022-09-20T15:01:24.999Z,3.10
2022-09-20T15:03:53.774Z,2.50
2022-09-20T15:06:21.624Z,2.30
2022-09-20T15:08:49.659Z,1.70
2022-09-20T15:11:19.086Z,1.80
2022-09-20T15:13:46.993Z,2.10
2022-09-20T15:16:18.800Z,1.80
2022-09-20T15:18:47.061Z,1.40
2022-09-20T15:21:15.277Z,1.60
2022-09-20T15:23:43.963Z,1.50
2022-09-20T15:26:13.784Z,0.70
2022-09-20T15:28:41.567Z,0.80
2022-09-20T15:31:10.489Z,0.70
2022-09-20T15:33:38.360Z,0.60
2022-09-20T15:36:06.846Z,0.80
2022-09-20T15:38:34.854Z,0.70
2022-09-20T15:41:06.418Z,0.90
2022-09-20T15:43:34.438Z,1.00
2022-09-20T15:46:29.235Z,2.00
2022-09-20T15:51:30.557Z,6.10
2022-09-20T15:54:00.702Z,40.30
2022-09-20T15:56:37.220Z,41.30
2022-09-20T15:59:10.455Z,152.20
2022-09-20T16:01:43.452Z,366.30
2022-09-20T16:04:17.520Z,191.70
2022-09-20T16:06:48.232Z,152.50
2022-09-20T16:09:18.341Z,127.70
2022-09-20T16:11:48.291Z,293.40
2022-09-20T16:14:16.430Z,250.40
2022-09-20T16:16:44.364Z,69.90
2022-09-20T16:19:20.198Z,57.10
2022-09-20T16:21:56.584Z,26.20
2022-09-20T16:24:30.834Z,19.60
2022-09-20T16:27:01.345Z,12.30
2022-09-20T16:29:31.186Z,11.60
2022-09-20T16:32:00.986Z,8.40
2022-09-20T16:34:36.598Z,5.90
2022-09-20T16:37:12.007Z,4.70
2022-09-20T16:39:41.038Z,4.20
2022-09-20T16:42:12.956Z,6.20
2022-09-20T16:44:43.108Z,6.90
2022-09-20T16:47:22.308Z,8.30
2022-09-20T16:49:50.760Z,10.10
2022-09-20T16:52:18.883Z,10.30
2022-09-20T16:54:46.742Z,11.70
2022-09-20T16:57:15.662Z,11.00
2022-09-20T16:59:43.530Z,13.70
2022-09-20T17:02:12.719Z,27.20
2022-09-20T17:04:42.135Z,12.70
2022-09-20T17:07:10.013Z,9.30
2022-09-20T17:09:37.840Z,6.60
2022-09-20T17:12:09.309Z,8.30
2022-09-20T17:14:37.379Z,9.30
2022-09-20T17:17:05.208Z,10.80
2022-09-20T17:19:33.938Z,17.20
2022-09-20T17:22:01.749Z,18.00
2022-09-20T17:24:30.296Z,22.20
2022-09-20T17:26:58.666Z,21.80
2022-09-20T17:29:27.750Z,21.50
2022-09-20T17:31:59.896Z,51.20
2022-09-20T17:34:29.633Z,48.40
2022-09-20T17:36:57.690Z,85.10
2022-09-20T17:39:25.693Z,40.60
2022-09-20T17:41:53.560Z,37.40
2022-09-20T17:44:21.493Z,34.60
2022-09-20T17:46:50.699Z,20.90
2022-09-20T17:49:21.411Z,14.70
2022-09-20T17:51:51.933Z,31.50
2022-09-20T17:54:20.670Z,20.10
2022-09-20T17:56:51.726Z,15.80
2022-09-20T17:59:20.856Z,8.30
2022-09-20T18:01:51.130Z,7.60
2022-09-20T18:04:21.390Z,8.00
2022-09-20T18:06:51.216Z,10.10
2022-09-20T18:09:25.407Z,9.50
2022-09-20T18:11:55.431Z,45.00
2022-09-20T18:14:27.549Z,24.40
2022-09-20T18:17:00.026Z,14.40
2022-09-20T18:19:33.128Z,7.30
2022-09-20T18:22:03.076Z,5.50
2022-09-20T18:24:31.701Z,4.50
2022-09-20T18:27:01.097Z,4.40
2022-09-20T18:29:31.767Z,5.70
2022-09-20T18:32:00.975Z,5.70
2022-09-20T18:34:33.608Z,6.20
2022-09-20T18:37:03.865Z,6.00
2022-09-20T18:39:34.931Z,5.80
2022-09-20T18:42:04.364Z,4.70
2022-09-20T18:44:34.587Z,4.80
2022-09-20T18:47:04.206Z,6.20
2022-09-20T18:49:32.366Z,7.70
2022-09-20T18:52:00.591Z,7.90
2022-09-20T18:54:33.546Z,7.90
2022-09-20T18:57:02.362Z,10.40
2022-09-20T18:59:30.935Z,11.60
2022-09-20T19:02:40.110Z,11.70
2022-09-20T19:05:34.277Z,10.00
2022-09-20T19:08:23.214Z,9.80
2022-09-20T19:10:59.202Z,10.10
2022-09-20T19:13:45.082Z,11.90
2022-09-20T19:16:18.620Z,13.20
2022-09-20T19:19:17.996Z,11.50
2022-09-20T19:22:08.672Z,9.20
2022-09-20T19:24:39.352Z,10.30
2022-09-20T19:27:12.249Z,8.30
2022-09-20T19:29:40.787Z,8.60
2022-09-20T19:32:18.926Z,9.50
2022-09-20T19:34:53.038Z,6.60
2022-09-20T19:37:35.332Z,9.10
2022-09-20T19:40:26.043Z,9.60
2022-09-20T19:43:03.742Z,7.10
2022-09-20T19:45:55.833Z,6.20
2022-09-20T19:48:39.719Z,6.90
2022-09-20T19:51:12.773Z,4.60
2022-09-20T19:53:41.237Z,4.90
2022-09-20T19:56:29.709Z,4.10
2022-09-20T19:58:57.949Z,3.90
2022-09-20T20:01:26.515Z,3.90
2022-09-20T20:03:55.289Z,3.70
2022-09-20T20:06:33.174Z,4.10
2022-09-20T20:09:20.383Z,4.60
2022-09-20T20:12:00.513Z,4.60
2022-09-20T20:14:55.985Z,3.80
2022-09-20T20:17:37.541Z,4.40
2022-09-20T20:20:33.912Z,6.60
2022-09-20T20:23:39.740Z,6.50
2022-09-20T20:26:19.904Z,6.60
2022-09-20T20:28:48.494Z,8.20
2022-09-20T20:31:16.825Z,9.10
2022-09-20T20:33:44.749Z,9.40
2022-09-20T20:36:12.598Z,8.00
2022-09-20T20:38:43.627Z,8.30
2022-09-20T20:41:13.946Z,7.70
2022-09-20T20:43:43.619Z,7.40
2022-09-20T20:46:14.412Z,6.20
2022-09-20T20:48:42.629Z,5.80
2022-09-20T20:51:12.712Z,5.60
2022-09-20T20:53:46.705Z,5.50
2022-09-20T20:56:17.473Z,4.70
2022-09-20T20:58:46.986Z,4.90
2022-09-20T21:01:30.791Z,5.40
2022-09-20T21:03:59.592Z,5.40
2022-09-20T21:06:30.265Z,6.00
2022-09-20T21:08:58.623Z,5.80
2022-09-20T21:11:28.433Z,6.80
2022-09-20T21:13:58.144Z,6.00
2022-09-20T21:16:31.370Z,4.70
2022-09-20T21:18:59.221Z,4.90
2022-09-20T21:21:36.063Z,4.00
2022-09-20T21:24:06.356Z,4.60
2022-09-20T21:26:37.137Z,3.80
2022-09-20T21:29:11.030Z,4.20
2022-09-20T21:31:41.665Z,3.70
2022-09-20T21:34:11.878Z,3.30
2022-09-20T21:36:44.753Z,3.20
2022-09-20T21:39:13.174Z,3.70
2022-09-20T21:41:41.598Z,3.90
2022-09-20T21:44:12.542Z,3.30
2022-09-20T21:46:42.121Z,3.90
2022-09-20T21:49:12.265Z,3.00
2022-09-20T21:51:42.748Z,2.80
2022-09-20T21:54:11.599Z,3.40
2022-09-20T21:56:41.524Z,3.30
2022-09-20T21:59:10.121Z,3.60
2022-09-20T22:01:41.325Z,4.40
2022-09-20T22:04:11.801Z,3.80
2022-09-20T22:06:42.159Z,3.30
2022-09-20T22:09:15.305Z,3.60
2022-09-20T22:11:48.499Z,3.40
2022-09-20T22:14:19.824Z,3.40
2022-09-20T22:16:49.294Z,3.20
2022-09-20T22:19:18.325Z,3.60
2022-09-20T22:21:48.645Z,3.60
2022-09-20T22:24:18.240Z,3.80
2022-09-20T22:26:51.220Z,3.90
2022-09-20T22:29:19.630Z,3.10
2022-09-20T22:31:50.371Z,3.60
2022-09-20T22:34:24.402Z,3.50
2022-09-20T22:36:52.540Z,3.50
2022-09-20T22:39:20.414Z,3.60
2022-09-20T22:41:50.870Z,3.30
2022-09-20T22:44:18.627Z,4.30
2022-09-20T22:46:46.532Z,3.20
2022-09-20T22:49:14.400Z,3.30
2022-09-20T22:51:42.988Z,3.50
2022-09-20T22:54:13.421Z,3.30
2022-09-20T22:56:42.608Z,3.70
2022-09-20T22:59:12.940Z,3.90
2022-09-20T23:01:45.787Z,3.50
2022-09-20T23:04:16.867Z,3.70
2022-09-20T23:06:47.957Z,3.40
2022-09-20T23:09:18.007Z,3.20
2022-09-20T23:11:46.887Z,3.00
2022-09-20T23:14:20.992Z,3.30
2022-09-20T23:16:49.374Z,3.40
2022-09-20T23:19:17.680Z,3.00
2022-09-20T23:21:45.720Z,3.10
2022-09-20T23:24:16.133Z,3.20
2022-09-20T23:26:44.715Z,3.70
2022-09-20T23:29:15.305Z,3.60
2022-09-20T23:31:46.463Z,3.10
2022-09-20T23:34:17.472Z,3.40
2022-09-20T23:36:46.725Z,3.40
2022-09-20T23:39:15.565Z,3.60
2022-09-20T23:41:48.337Z,3.90
2022-09-20T23:44:19.862Z,3.30
2022-09-20T23:46:47.972Z,3.70
2022-09-20T23:49:15.950Z,4.00
2022-09-20T23:51:43.766Z,3.50
2022-09-20T23:54:11.789Z,3.40
2022-09-20T23:56:40.949Z,3.10
2022-09-20T23:59:08.786Z,3.20
